Airfield :
LOGIN :

Register | Disclaimer

   EN    FR    IT 

 










Legend :    VFR   Marginal VFR   IFR   Intensive IFR   Very Intensive IFR
Visi :
Ceiling :
>= 8 km
>= 3000ft
5 to 8 km
1000 to 3000 ft
1500m to 5 km
500 to 1000 ft
800 to 1500m
200 to 500 ft
< 800m
< 200 ft
Symbols :   Thunderstorms  Fog  Heavy snow  Heavy precipitations  Wind > 20 kt
SIGMETs :     Misc.  Thunderstorms  Icing  Turbulence  Mountain Waves  Volcanic Ashes







- Airport Elevation : 1585 ft
- IATA code : SIR


LSGS - Sion

CURRENT METAR :
  • 260150Z AUTO 25015KT 9999 OVC060 08/03 Q1011

EXPIRED METARs :
  • 260120Z AUTO 25020KT 9999 FEW070 //////TCU 08/03 Q1010
  • 260050Z AUTO 26020KT 9999 NCD 09/04 Q1010
  • 260020Z AUTO 26021KT 9999 FEW100 10/05 Q1010
  • 252350Z AUTO 25020G30KT 9999 NCD 11/05 Q1009
  • 252320Z AUTO 26017KT CAVOK 12/06 Q1009

Expired Forecast.
No reported NOTAMs for that airfield.
1 SIGMET reported for the Switzerland FIR (LSAS) :
 
Embedded thunderstorms
LSAS SIGMET 1 VALID 260020/260200 LSZH
LSAS SWITZERLAND FIR/UIR EMBD TS OBS WI N4655 E00923 - N4617 E00923 - N4614 E00810 - N4653 E00810 - N4655 E00923 TOP FL280 STNR NC=



MET'MAP, your aeronautical weather chart ! - Copyright ORBIFLY December 2007 - Disclaimer

ORBIFLY MET'MAP TEAM :

Programming & Development : Alexandra Zaïnal
Concept & Development : Baudouin d'Aumeries
Co-Development & Prog : Marc-Olivier Méhu
Technical & hardware support : Manuel Goepfert

Contact : metmap@orbifly.com




SOURCES & CREDITS :

   NOAA